sensor_id;sensor_type;location;lat;lon;timestamp;temperature;humidity
30069;DHT22;16894;49.456;10.644;2024-02-21T00:00:12;7.00;99.90
30069;DHT22;16894;49.456;10.644;2024-02-21T00:02:56;7.00;99.90
30069;DHT22;16894;49.456;10.644;2024-02-21T00:05:43;6.90;99.90
30069;DHT22;16894;49.456;10.644;2024-02-21T00:08:27;6.90;99.90
30069;DHT22;16894;49.456;10.644;2024-02-21T00:11:11;6.90;1.00
30069;DHT22;16894;49.456;10.644;2024-02-21T00:13:55;6.90;1.00
30069;DHT22;16894;49.456;10.644;2024-02-21T00:16:40;6.90;1.00
30069;DHT22;16894;49.456;10.644;2024-02-21T00:19:24;6.90;1.00
30069;DHT22;16894;49.456;10.644;2024-02-21T00:22:08;6.90;1.00
30069;DHT22;16894;49.456;10.644;2024-02-21T00:24:52;6.90;1.00
30069;DHT22;16894;49.456;10.644;2024-02-21T00:27:37;6.90;1.00
30069;DHT22;16894;49.456;10.644;2024-02-21T00:30:21;7.00;1.00
30069;DHT22;16894;49.456;10.644;2024-02-21T00:33:05;7.00;1.00
30069;DHT22;16894;49.456;10.644;2024-02-21T00:35:49;6.90;13.00
30069;DHT22;16894;49.456;10.644;2024-02-21T00:38:34;7.00;22.10
30069;DHT22;16894;49.456;10.644;2024-02-21T00:41:18;7.00;1.00
30069;DHT22;16894;49.456;10.644;2024-02-21T00:44:02;7.10;1.00
30069;DHT22;16894;49.456;10.644;2024-02-21T00:46:49;7.00;1.00
30069;DHT22;16894;49.456;10.644;2024-02-21T00:49:34;7.00;1.00
30069;DHT22;16894;49.456;10.644;2024-02-21T00:52:18;7.00;1.00
30069;DHT22;16894;49.456;10.644;2024-02-21T00:55:03;7.10;99.90
30069;DHT22;16894;49.456;10.644;2024-02-21T00:57:47;7.00;99.90
30069;DHT22;16894;49.456;10.644;2024-02-21T01:00:31;7.10;99.90
30069;DHT22;16894;49.456;10.644;2024-02-21T01:03:16;7.10;1.00
30069;DHT22;16894;49.456;10.644;2024-02-21T01:06:00;7.00;1.00
30069;DHT22;16894;49.456;10.644;2024-02-21T01:08:44;7.00;1.00
30069;DHT22;16894;49.456;10.644;2024-02-21T01:11:28;7.00;1.00
30069;DHT22;16894;49.456;10.644;2024-02-21T01:14:12;7.00;1.00
30069;DHT22;16894;49.456;10.644;2024-02-21T01:16:57;7.00;1.00
30069;DHT22;16894;49.456;10.644;2024-02-21T01:19:41;7.00;1.00
30069;DHT22;16894;49.456;10.644;2024-02-21T01:22:25;7.00;11.10
30069;DHT22;16894;49.456;10.644;2024-02-21T01:25:09;7.00;43.30
30069;DHT22;16894;49.456;10.644;2024-02-21T01:27:53;7.00;1.00
30069;DHT22;16894;49.456;10.644;2024-02-21T01:30:38;7.00;19.80
30069;DHT22;16894;49.456;10.644;2024-02-21T01:33:22;7.00;39.00
30069;DHT22;16894;49.456;10.644;2024-02-21T01:36:06;7.00;29.80
30069;DHT22;16894;49.456;10.644;2024-02-21T01:38:50;7.10;1.00
30069;DHT22;16894;49.456;10.644;2024-02-21T01:41:35;7.00;4.20
30069;DHT22;16894;49.456;10.644;2024-02-21T01:44:19;7.00;1.00
30069;DHT22;16894;49.456;10.644;2024-02-21T01:47:03;7.00;58.40
30069;DHT22;16894;49.456;10.644;2024-02-21T01:49:47;7.00;40.10
30069;DHT22;16894;49.456;10.644;2024-02-21T01:52:31;7.00;80.50
30069;DHT22;16894;49.456;10.644;2024-02-21T01:55:15;7.00;70.10
30069;DHT22;16894;49.456;10.644;2024-02-21T01:58:00;7.00;59.40
30069;DHT22;16894;49.456;10.644;2024-02-21T02:00:45;7.00;89.40
30069;DHT22;16894;49.456;10.644;2024-02-21T02:03:29;7.00;82.10
30069;DHT22;16894;49.456;10.644;2024-02-21T02:06:14;6.90;85.20
30069;DHT22;16894;49.456;10.644;2024-02-21T02:08:58;7.00;99.90
30069;DHT22;16894;49.456;10.644;2024-02-21T02:11:42;7.00;99.90
30069;DHT22;16894;49.456;10.644;2024-02-21T02:14:27;6.90;99.90
30069;DHT22;16894;49.456;10.644;2024-02-21T02:17:11;6.90;99.90
30069;DHT22;16894;49.456;10.644;2024-02-21T02:19:56;6.90;99.90
30069;DHT22;16894;49.456;10.644;2024-02-21T02:22:40;6.90;99.90
30069;DHT22;16894;49.456;10.644;2024-02-21T02:25:26;6.90;99.90
30069;DHT22;16894;49.456;10.644;2024-02-21T02:28:10;6.90;83.20
30069;DHT22;16894;49.456;10.644;2024-02-21T02:30:55;6.90;83.30
30069;DHT22;16894;49.456;10.644;2024-02-21T02:33:39;6.90;97.30
30069;DHT22;16894;49.456;10.644;2024-02-21T02:36:23;6.80;88.60
30069;DHT22;16894;49.456;10.644;2024-02-21T02:39:07;6.80;99.90
30069;DHT22;16894;49.456;10.644;2024-02-21T02:41:51;6.80;99.90
30069;DHT22;16894;49.456;10.644;2024-02-21T02:44:36;6.80;99.90
30069;DHT22;16894;49.456;10.644;2024-02-21T02:47:20;6.80;99.90
30069;DHT22;16894;49.456;10.644;2024-02-21T02:50:04;6.80;90.70
30069;DHT22;16894;49.456;10.644;2024-02-21T02:52:48;6.70;99.90
30069;DHT22;16894;49.456;10.644;2024-02-21T02:55:32;6.70;99.90
30069;DHT22;16894;49.456;10.644;2024-02-21T02:58:17;6.80;99.90
30069;DHT22;16894;49.456;10.644;2024-02-21T03:01:01;6.80;96.20
30069;DHT22;16894;49.456;10.644;2024-02-21T03:03:46;6.80;80.10
30069;DHT22;16894;49.456;10.644;2024-02-21T03:06:31;6.70;99.90
30069;DHT22;16894;49.456;10.644;2024-02-21T03:09:15;6.70;99.00
30069;DHT22;16894;49.456;10.644;2024-02-21T03:11:59;6.70;99.90
30069;DHT22;16894;49.456;10.644;2024-02-21T03:14:46;6.70;99.90
30069;DHT22;16894;49.456;10.644;2024-02-21T03:17:31;6.70;99.90
30069;DHT22;16894;49.456;10.644;2024-02-21T03:20:15;6.70;99.90
30069;DHT22;16894;49.456;10.644;2024-02-21T03:23:00;6.70;99.90
30069;DHT22;16894;49.456;10.644;2024-02-21T03:25:44;6.70;99.90
30069;DHT22;16894;49.456;10.644;2024-02-21T03:28:28;6.60;99.90
30069;DHT22;16894;49.456;10.644;2024-02-21T03:31:12;6.70;95.90
30069;DHT22;16894;49.456;10.644;2024-02-21T03:34:00;6.70;99.90
30069;DHT22;16894;49.456;10.644;2024-02-21T03:36:44;6.70;99.90
30069;DHT22;16894;49.456;10.644;2024-02-21T03:39:30;6.70;98.10
30069;DHT22;16894;49.456;10.644;2024-02-21T03:42:14;6.70;99.90
30069;DHT22;16894;49.456;10.644;2024-02-21T03:44:59;6.70;99.90
30069;DHT22;16894;49.456;10.644;2024-02-21T03:47:43;6.80;91.80
30069;DHT22;16894;49.456;10.644;2024-02-21T03:50:27;6.80;94.60
30069;DHT22;16894;49.456;10.644;2024-02-21T03:53:11;6.70;96.60
30069;DHT22;16894;49.456;10.644;2024-02-21T03:55:56;6.70;99.90
30069;DHT22;16894;49.456;10.644;2024-02-21T03:58:41;6.80;99.90
30069;DHT22;16894;49.456;10.644;2024-02-21T04:01:25;6.80;99.90
30069;DHT22;16894;49.456;10.644;2024-02-21T04:04:09;6.80;99.90
30069;DHT22;16894;49.456;10.644;2024-02-21T04:06:54;6.80;99.90
30069;DHT22;16894;49.456;10.644;2024-02-21T04:09:38;6.80;99.90
30069;DHT22;16894;49.456;10.644;2024-02-21T04:12:23;6.70;99.90
30069;DHT22;16894;49.456;10.644;2024-02-21T04:15:07;6.60;99.90
30069;DHT22;16894;49.456;10.644;2024-02-21T04:17:52;6.50;1.00
30069;DHT22;16894;49.456;10.644;2024-02-21T04:20:37;6.50;1.00
30069;DHT22;16894;49.456;10.644;2024-02-21T04:23:21;6.40;1.00
30069;DHT22;16894;49.456;10.644;2024-02-21T04:26:05;6.40;1.00
30069;DHT22;16894;49.456;10.644;2024-02-21T04:28:49;6.40;1.00
30069;DHT22;16894;49.456;10.644;2024-02-21T04:31:34;6.40;1.00
30069;DHT22;16894;49.456;10.644;2024-02-21T04:34:18;6.40;1.00
30069;DHT22;16894;49.456;10.644;2024-02-21T04:37:02;6.40;1.00
30069;DHT22;16894;49.456;10.644;2024-02-21T04:39:47;6.30;1.00
30069;DHT22;16894;49.456;10.644;2024-02-21T04:42:32;6.30;1.00
30069;DHT22;16894;49.456;10.644;2024-02-21T04:45:16;6.20;1.00
30069;DHT22;16894;49.456;10.644;2024-02-21T04:48:00;6.20;1.00
30069;DHT22;16894;49.456;10.644;2024-02-21T04:50:45;6.20;1.00
30069;DHT22;16894;49.456;10.644;2024-02-21T04:53:29;6.10;1.00
30069;DHT22;16894;49.456;10.644;2024-02-21T04:56:13;6.10;1.00
30069;DHT22;16894;49.456;10.644;2024-02-21T04:58:57;6.10;1.00
30069;DHT22;16894;49.456;10.644;2024-02-21T05:01:41;6.10;1.00
30069;DHT22;16894;49.456;10.644;2024-02-21T05:04:26;6.10;1.00
30069;DHT22;16894;49.456;10.644;2024-02-21T05:07:10;6.00;1.00
30069;DHT22;16894;49.456;10.644;2024-02-21T05:09:55;6.00;1.00
30069;DHT22;16894;49.456;10.644;2024-02-21T05:12:40;6.00;1.00
30069;DHT22;16894;49.456;10.644;2024-02-21T05:15:24;6.00;1.00
30069;DHT22;16894;49.456;10.644;2024-02-21T05:18:08;6.00;1.00
30069;DHT22;16894;49.456;10.644;2024-02-21T05:20:53;6.00;1.00
30069;DHT22;16894;49.456;10.644;2024-02-21T05:23:37;5.90;1.00
30069;DHT22;16894;49.456;10.644;2024-02-21T05:26:23;6.00;1.00
30069;DHT22;16894;49.456;10.644;2024-02-21T05:29:08;5.90;1.00
30069;DHT22;16894;49.456;10.644;2024-02-21T05:34:42;5.90;1.00
30069;DHT22;16894;49.456;10.644;2024-02-21T05:37:27;5.90;1.00
30069;DHT22;16894;49.456;10.644;2024-02-21T05:40:11;5.80;1.00
30069;DHT22;16894;49.456;10.644;2024-02-21T05:42:57;5.80;1.00
30069;DHT22;16894;49.456;10.644;2024-02-21T05:45:41;5.80;1.00
30069;DHT22;16894;49.456;10.644;2024-02-21T05:48:26;5.80;1.00
30069;DHT22;16894;49.456;10.644;2024-02-21T05:51:11;5.80;1.00
30069;DHT22;16894;49.456;10.644;2024-02-21T05:53:55;5.80;1.00
30069;DHT22;16894;49.456;10.644;2024-02-21T05:56:39;5.70;1.00
30069;DHT22;16894;49.456;10.644;2024-02-21T05:59:27;5.70;1.00
30069;DHT22;16894;49.456;10.644;2024-02-21T06:02:11;5.60;1.00
30069;DHT22;16894;49.456;10.644;2024-02-21T06:04:56;5.70;1.00
30069;DHT22;16894;49.456;10.644;2024-02-21T06:07:40;5.60;1.00
30069;DHT22;16894;49.456;10.644;2024-02-21T06:10:24;5.60;1.00
30069;DHT22;16894;49.456;10.644;2024-02-21T06:13:08;5.60;1.00
30069;DHT22;16894;49.456;10.644;2024-02-21T06:15:53;5.60;1.00
30069;DHT22;16894;49.456;10.644;2024-02-21T06:18:38;5.60;1.00
30069;DHT22;16894;49.456;10.644;2024-02-21T06:21:22;5.70;1.00
30069;DHT22;16894;49.456;10.644;2024-02-21T06:24:06;5.60;1.00
30069;DHT22;16894;49.456;10.644;2024-02-21T06:26:50;5.70;1.00
30069;DHT22;16894;49.456;10.644;2024-02-21T06:29:34;5.70;1.00
30069;DHT22;16894;49.456;10.644;2024-02-21T06:32:19;5.80;1.00
30069;DHT22;16894;49.456;10.644;2024-02-21T06:35:03;5.80;1.00
30069;DHT22;16894;49.456;10.644;2024-02-21T06:37:48;5.80;1.00
30069;DHT22;16894;49.456;10.644;2024-02-21T06:40:34;5.80;1.00
30069;DHT22;16894;49.456;10.644;2024-02-21T06:43:23;5.80;1.00
30069;DHT22;16894;49.456;10.644;2024-02-21T06:46:07;5.90;1.00
30069;DHT22;16894;49.456;10.644;2024-02-21T06:49:00;5.90;99.90
30069;DHT22;16894;49.456;10.644;2024-02-21T06:51:45;5.90;99.90
30069;DHT22;16894;49.456;10.644;2024-02-21T06:54:29;5.90;99.90
30069;DHT22;16894;49.456;10.644;2024-02-21T06:57:14;5.90;99.90
30069;DHT22;16894;49.456;10.644;2024-02-21T06:59:59;5.90;99.90
30069;DHT22;16894;49.456;10.644;2024-02-21T07:02:43;6.00;99.90
30069;DHT22;16894;49.456;10.644;2024-02-21T07:05:28;6.00;99.90
30069;DHT22;16894;49.456;10.644;2024-02-21T07:08:12;6.00;99.90
30069;DHT22;16894;49.456;10.644;2024-02-21T07:10:56;6.10;99.90
30069;DHT22;16894;49.456;10.644;2024-02-21T07:13:40;6.00;99.90
30069;DHT22;16894;49.456;10.644;2024-02-21T07:16:24;6.10;99.90
30069;DHT22;16894;49.456;10.644;2024-02-21T07:19:10;6.10;99.90
30069;DHT22;16894;49.456;10.644;2024-02-21T07:21:54;6.20;99.90
30069;DHT22;16894;49.456;10.644;2024-02-21T07:24:38;6.20;99.90
30069;DHT22;16894;49.456;10.644;2024-02-21T07:27:23;6.20;99.90
30069;DHT22;16894;49.456;10.644;2024-02-21T07:30:12;6.20;99.90
30069;DHT22;16894;49.456;10.644;2024-02-21T07:32:56;6.30;99.90
30069;DHT22;16894;49.456;10.644;2024-02-21T07:35:40;6.40;99.90
30069;DHT22;16894;49.456;10.644;2024-02-21T07:38:26;6.40;99.90
30069;DHT22;16894;49.456;10.644;2024-02-21T07:41:10;6.50;99.90
30069;DHT22;16894;49.456;10.644;2024-02-21T07:43:54;6.60;99.90
30069;DHT22;16894;49.456;10.644;2024-02-21T07:46:38;6.60;99.90
30069;DHT22;16894;49.456;10.644;2024-02-21T07:49:22;6.70;99.90
30069;DHT22;16894;49.456;10.644;2024-02-21T07:52:07;6.70;99.90
30069;DHT22;16894;49.456;10.644;2024-02-21T07:54:51;6.70;99.90
30069;DHT22;16894;49.456;10.644;2024-02-21T07:57:35;6.60;99.90
30069;DHT22;16894;49.456;10.644;2024-02-21T08:00:20;6.60;99.90
30069;DHT22;16894;49.456;10.644;2024-02-21T08:03:05;6.60;99.90
30069;DHT22;16894;49.456;10.644;2024-02-21T08:05:49;6.60;1.00
30069;DHT22;16894;49.456;10.644;2024-02-21T08:08:33;6.60;99.90
30069;DHT22;16894;49.456;10.644;2024-02-21T08:11:17;6.70;99.90
30069;DHT22;16894;49.456;10.644;2024-02-21T08:14:02;6.70;99.90
30069;DHT22;16894;49.456;10.644;2024-02-21T08:16:47;6.80;5.60
30069;DHT22;16894;49.456;10.644;2024-02-21T08:19:31;6.90;1.00
30069;DHT22;16894;49.456;10.644;2024-02-21T08:22:15;7.10;1.00
30069;DHT22;16894;49.456;10.644;2024-02-21T08:25:00;7.20;1.00
30069;DHT22;16894;49.456;10.644;2024-02-21T08:27:44;7.40;99.90
30069;DHT22;16894;49.456;10.644;2024-02-21T08:30:29;7.70;22.30
30069;DHT22;16894;49.456;10.644;2024-02-21T08:33:14;7.80;4.80
30069;DHT22;16894;49.456;10.644;2024-02-21T08:35:59;8.10;99.90
30069;DHT22;16894;49.456;10.644;2024-02-21T08:38:43;8.20;99.90
30069;DHT22;16894;49.456;10.644;2024-02-21T08:41:27;8.40;99.90
30069;DHT22;16894;49.456;10.644;2024-02-21T08:44:11;8.70;99.90
30069;DHT22;16894;49.456;10.644;2024-02-21T08:46:56;8.90;12.50
30069;DHT22;16894;49.456;10.644;2024-02-21T08:49:40;9.00;99.90
30069;DHT22;16894;49.456;10.644;2024-02-21T08:52:24;9.10;24.90
30069;DHT22;16894;49.456;10.644;2024-02-21T08:55:08;9.20;99.90
30069;DHT22;16894;49.456;10.644;2024-02-21T08:57:52;9.30;99.90
30069;DHT22;16894;49.456;10.644;2024-02-21T09:00:37;9.50;1.00
30069;DHT22;16894;49.456;10.644;2024-02-21T09:03:21;9.50;99.90
30069;DHT22;16894;49.456;10.644;2024-02-21T09:06:05;9.40;89.70
30069;DHT22;16894;49.456;10.644;2024-02-21T09:08:50;9.30;16.90
30069;DHT22;16894;49.456;10.644;2024-02-21T09:11:34;9.10;11.40
30069;DHT22;16894;49.456;10.644;2024-02-21T09:14:18;9.20;99.90
30069;DHT22;16894;49.456;10.644;2024-02-21T09:17:02;9.20;46.70
30069;DHT22;16894;49.456;10.644;2024-02-21T09:19:47;9.40;97.30
30069;DHT22;16894;49.456;10.644;2024-02-21T09:22:34;9.60;1.00
30069;DHT22;16894;49.456;10.644;2024-02-21T09:25:19;9.50;1.00
30069;DHT22;16894;49.456;10.644;2024-02-21T09:28:03;9.70;99.90
30069;DHT22;16894;49.456;10.644;2024-02-21T09:30:49;9.80;99.90
30069;DHT22;16894;49.456;10.644;2024-02-21T09:33:34;9.80;99.90
30069;DHT22;16894;49.456;10.644;2024-02-21T09:36:18;10.10;99.90
30069;DHT22;16894;49.456;10.644;2024-02-21T09:39:02;10.40;85.70
30069;DHT22;16894;49.456;10.644;2024-02-21T09:41:50;10.60;63.80
30069;DHT22;16894;49.456;10.644;2024-02-21T09:44:39;10.70;18.90
30069;DHT22;16894;49.456;10.644;2024-02-21T09:47:43;10.80;1.00
30069;DHT22;16894;49.456;10.644;2024-02-21T09:50:30;10.70;1.00
30069;DHT22;16894;49.456;10.644;2024-02-21T09:53:16;10.70;99.90
30069;DHT22;16894;49.456;10.644;2024-02-21T09:56:01;10.50;99.90
30069;DHT22;16894;49.456;10.644;2024-02-21T09:58:46;10.30;1.00
30069;DHT22;16894;49.456;10.644;2024-02-21T10:01:31;10.40;99.90
30069;DHT22;16894;49.456;10.644;2024-02-21T10:04:15;10.20;1.00
30069;DHT22;16894;49.456;10.644;2024-02-21T10:06:59;10.10;48.00
30069;DHT22;16894;49.456;10.644;2024-02-21T10:09:44;10.30;24.30
30069;DHT22;16894;49.456;10.644;2024-02-21T10:12:31;10.60;1.20
30069;DHT22;16894;49.456;10.644;2024-02-21T10:15:19;10.80;99.90
30069;DHT22;16894;49.456;10.644;2024-02-21T10:18:03;10.70;99.90
30069;DHT22;16894;49.456;10.644;2024-02-21T10:20:47;10.90;99.90
30069;DHT22;16894;49.456;10.644;2024-02-21T10:23:45;11.00;99.90
30069;DHT22;16894;49.456;10.644;2024-02-21T10:26:30;11.10;99.90
30069;DHT22;16894;49.456;10.644;2024-02-21T10:29:14;11.20;99.90
30069;DHT22;16894;49.456;10.644;2024-02-21T10:32:08;10.90;99.90
30069;DHT22;16894;49.456;10.644;2024-02-21T10:35:00;10.80;99.90
30069;DHT22;16894;49.456;10.644;2024-02-21T10:37:44;10.60;99.90
30069;DHT22;16894;49.456;10.644;2024-02-21T10:40:29;10.70;99.90
30069;DHT22;16894;49.456;10.644;2024-02-21T10:43:14;10.70;99.90
30069;DHT22;16894;49.456;10.644;2024-02-21T10:46:00;10.70;99.90
30069;DHT22;16894;49.456;10.644;2024-02-21T10:48:46;10.70;99.90
30069;DHT22;16894;49.456;10.644;2024-02-21T10:51:32;10.60;99.90
30069;DHT22;16894;49.456;10.644;2024-02-21T10:57:03;11.20;99.90
30069;DHT22;16894;49.456;10.644;2024-02-21T10:59:48;11.30;99.90
30069;DHT22;16894;49.456;10.644;2024-02-21T11:02:32;11.40;99.90
30069;DHT22;16894;49.456;10.644;2024-02-21T11:05:16;11.40;99.90
30069;DHT22;16894;49.456;10.644;2024-02-21T11:08:02;11.40;99.90
30069;DHT22;16894;49.456;10.644;2024-02-21T11:10:47;11.50;81.20
30069;DHT22;16894;49.456;10.644;2024-02-21T11:13:37;11.70;34.40
30069;DHT22;16894;49.456;10.644;2024-02-21T11:16:22;12.10;10.70
30069;DHT22;16894;49.456;10.644;2024-02-21T11:19:10;12.00;55.40
30069;DHT22;16894;49.456;10.644;2024-02-21T11:22:02;12.20;1.00
30069;DHT22;16894;49.456;10.644;2024-02-21T11:25:06;12.30;1.00
30069;DHT22;16894;49.456;10.644;2024-02-21T11:27:58;12.30;1.00
30069;DHT22;16894;49.456;10.644;2024-02-21T11:30:42;12.20;1.00
30069;DHT22;16894;49.456;10.644;2024-02-21T11:33:27;12.60;1.00
30069;DHT22;16894;49.456;10.644;2024-02-21T11:36:22;12.70;99.90
30069;DHT22;16894;49.456;10.644;2024-02-21T11:39:06;12.30;99.90
30069;DHT22;16894;49.456;10.644;2024-02-21T11:42:03;12.40;99.90
30069;DHT22;16894;49.456;10.644;2024-02-21T11:44:48;12.60;99.90
30069;DHT22;16894;49.456;10.644;2024-02-21T11:47:32;12.50;99.90
30069;DHT22;16894;49.456;10.644;2024-02-21T11:50:16;12.40;99.90
30069;DHT22;16894;49.456;10.644;2024-02-21T11:53:00;12.30;99.90
30069;DHT22;16894;49.456;10.644;2024-02-21T11:55:45;12.40;99.90
30069;DHT22;16894;49.456;10.644;2024-02-21T11:58:29;12.80;99.90
30069;DHT22;16894;49.456;10.644;2024-02-21T12:01:14;12.60;99.90
30069;DHT22;16894;49.456;10.644;2024-02-21T12:03:58;12.30;99.90
30069;DHT22;16894;49.456;10.644;2024-02-21T12:06:44;12.40;99.90
30069;DHT22;16894;49.456;10.644;2024-02-21T12:09:28;12.40;99.90
30069;DHT22;16894;49.456;10.644;2024-02-21T12:12:12;12.20;99.90
30069;DHT22;16894;49.456;10.644;2024-02-21T12:14:56;12.30;99.90
30069;DHT22;16894;49.456;10.644;2024-02-21T12:17:42;12.20;99.90
30069;DHT22;16894;49.456;10.644;2024-02-21T12:20:26;12.20;99.90
30069;DHT22;16894;49.456;10.644;2024-02-21T12:23:10;12.60;99.90
30069;DHT22;16894;49.456;10.644;2024-02-21T12:25:54;12.60;99.90
30069;DHT22;16894;49.456;10.644;2024-02-21T12:28:38;12.50;99.90
30069;DHT22;16894;49.456;10.644;2024-02-21T12:31:23;12.70;99.90
30069;DHT22;16894;49.456;10.644;2024-02-21T12:34:07;13.00;99.90
30069;DHT22;16894;49.456;10.644;2024-02-21T12:36:53;13.40;99.90
30069;DHT22;16894;49.456;10.644;2024-02-21T12:39:38;13.10;99.90
30069;DHT22;16894;49.456;10.644;2024-02-21T12:42:22;13.20;99.90
30069;DHT22;16894;49.456;10.644;2024-02-21T12:45:08;13.50;99.90
30069;DHT22;16894;49.456;10.644;2024-02-21T12:47:52;13.80;99.90
30069;DHT22;16894;49.456;10.644;2024-02-21T12:50:36;13.50;99.90
30069;DHT22;16894;49.456;10.644;2024-02-21T12:53:20;13.50;99.90
30069;DHT22;16894;49.456;10.644;2024-02-21T12:56:06;13.40;99.90
30069;DHT22;16894;49.456;10.644;2024-02-21T12:58:51;13.40;99.90
30069;DHT22;16894;49.456;10.644;2024-02-21T13:01:36;13.30;99.90
30069;DHT22;16894;49.456;10.644;2024-02-21T13:04:21;13.40;99.90
30069;DHT22;16894;49.456;10.644;2024-02-21T13:07:06;13.20;99.90
30069;DHT22;16894;49.456;10.644;2024-02-21T13:09:51;12.90;99.90
30069;DHT22;16894;49.456;10.644;2024-02-21T13:12:36;12.90;99.90
30069;DHT22;16894;49.456;10.644;2024-02-21T13:15:20;12.90;99.90
30069;DHT22;16894;49.456;10.644;2024-02-21T13:18:04;13.10;99.90
30069;DHT22;16894;49.456;10.644;2024-02-21T13:20:49;13.00;99.90
30069;DHT22;16894;49.456;10.644;2024-02-21T13:23:33;12.90;99.90
30069;DHT22;16894;49.456;10.644;2024-02-21T13:26:17;12.70;99.90
30069;DHT22;16894;49.456;10.644;2024-02-21T13:29:01;12.80;99.90
30069;DHT22;16894;49.456;10.644;2024-02-21T13:31:46;12.70;99.90
30069;DHT22;16894;49.456;10.644;2024-02-21T13:34:31;12.70;99.90
30069;DHT22;16894;49.456;10.644;2024-02-21T13:37:15;12.80;99.90
30069;DHT22;16894;49.456;10.644;2024-02-21T13:39:59;13.00;99.90
30069;DHT22;16894;49.456;10.644;2024-02-21T13:42:43;13.20;99.90
30069;DHT22;16894;49.456;10.644;2024-02-21T13:45:27;13.10;99.90
30069;DHT22;16894;49.456;10.644;2024-02-21T13:48:12;13.30;99.90
30069;DHT22;16894;49.456;10.644;2024-02-21T13:50:59;13.30;99.90
30069;DHT22;16894;49.456;10.644;2024-02-21T13:53:43;13.40;99.90
30069;DHT22;16894;49.456;10.644;2024-02-21T13:56:27;13.30;99.90
30069;DHT22;16894;49.456;10.644;2024-02-21T13:59:12;13.50;99.90
30069;DHT22;16894;49.456;10.644;2024-02-21T14:01:57;13.70;99.90
30069;DHT22;16894;49.456;10.644;2024-02-21T14:04:42;13.90;99.90
30069;DHT22;16894;49.456;10.644;2024-02-21T14:07:26;13.70;99.90
30069;DHT22;16894;49.456;10.644;2024-02-21T14:10:11;13.50;99.90
30069;DHT22;16894;49.456;10.644;2024-02-21T14:12:55;13.70;99.90
30069;DHT22;16894;49.456;10.644;2024-02-21T14:15:43;13.80;99.90
30069;DHT22;16894;49.456;10.644;2024-02-21T14:18:29;13.80;99.90
30069;DHT22;16894;49.456;10.644;2024-02-21T14:21:14;14.10;99.90
30069;DHT22;16894;49.456;10.644;2024-02-21T14:23:58;13.90;99.90
30069;DHT22;16894;49.456;10.644;2024-02-21T14:26:45;13.30;99.90
30069;DHT22;16894;49.456;10.644;2024-02-21T14:29:29;13.20;97.70
30069;DHT22;16894;49.456;10.644;2024-02-21T14:32:14;13.20;34.40
30069;DHT22;16894;49.456;10.644;2024-02-21T14:34:58;12.80;99.90
30069;DHT22;16894;49.456;10.644;2024-02-21T14:37:42;12.80;99.90
30069;DHT22;16894;49.456;10.644;2024-02-21T14:40:26;12.60;99.90
30069;DHT22;16894;49.456;10.644;2024-02-21T14:43:11;12.30;99.90
30069;DHT22;16894;49.456;10.644;2024-02-21T14:45:55;12.20;99.90
30069;DHT22;16894;49.456;10.644;2024-02-21T14:48:39;12.10;99.90
30069;DHT22;16894;49.456;10.644;2024-02-21T14:51:24;11.90;96.60
30069;DHT22;16894;49.456;10.644;2024-02-21T14:54:08;11.70;91.60
30069;DHT22;16894;49.456;10.644;2024-02-21T14:56:52;11.80;56.70
30069;DHT22;16894;49.456;10.644;2024-02-21T14:59:40;11.60;47.10
30069;DHT22;16894;49.456;10.644;2024-02-21T15:02:24;11.40;75.20
30069;DHT22;16894;49.456;10.644;2024-02-21T15:05:09;11.40;49.00
30069;DHT22;16894;49.456;10.644;2024-02-21T15:07:55;11.50;29.70
30069;DHT22;16894;49.456;10.644;2024-02-21T15:10:39;11.50;39.80
30069;DHT22;16894;49.456;10.644;2024-02-21T15:13:23;11.50;34.10
30069;DHT22;16894;49.456;10.644;2024-02-21T15:16:07;11.40;36.70
30069;DHT22;16894;49.456;10.644;2024-02-21T15:18:52;11.30;15.30
30069;DHT22;16894;49.456;10.644;2024-02-21T15:21:36;11.30;39.80
30069;DHT22;16894;49.456;10.644;2024-02-21T15:24:20;11.40;47.10
30069;DHT22;16894;49.456;10.644;2024-02-21T15:27:05;11.40;31.80
30069;DHT22;16894;49.456;10.644;2024-02-21T15:29:49;11.30;90.70
30069;DHT22;16894;49.456;10.644;2024-02-21T15:32:33;11.30;44.30
30069;DHT22;16894;49.456;10.644;2024-02-21T15:35:18;11.30;41.80
30069;DHT22;16894;49.456;10.644;2024-02-21T15:38:02;11.30;29.60
30069;DHT22;16894;49.456;10.644;2024-02-21T15:40:47;11.20;22.40
30069;DHT22;16894;49.456;10.644;2024-02-21T15:43:31;11.20;33.00
30069;DHT22;16894;49.456;10.644;2024-02-21T15:46:15;11.10;37.20
30069;DHT22;16894;49.456;10.644;2024-02-21T15:49:00;11.00;38.30
30069;DHT22;16894;49.456;10.644;2024-02-21T15:51:44;11.10;19.00
30069;DHT22;16894;49.456;10.644;2024-02-21T15:54:28;11.10;34.30
30069;DHT22;16894;49.456;10.644;2024-02-21T15:57:13;11.10;52.60
30069;DHT22;16894;49.456;10.644;2024-02-21T15:59:58;11.20;99.90
30069;DHT22;16894;49.456;10.644;2024-02-21T16:02:42;11.20;96.30
30069;DHT22;16894;49.456;10.644;2024-02-21T16:05:26;11.20;59.00
30069;DHT22;16894;49.456;10.644;2024-02-21T16:08:11;11.20;87.60
30069;DHT22;16894;49.456;10.644;2024-02-21T16:10:55;11.10;66.60
30069;DHT22;16894;49.456;10.644;2024-02-21T16:13:40;11.00;57.80
30069;DHT22;16894;49.456;10.644;2024-02-21T16:16:24;11.00;68.30
30069;DHT22;16894;49.456;10.644;2024-02-21T16:19:08;11.00;75.50
30069;DHT22;16894;49.456;10.644;2024-02-21T16:21:53;10.90;94.20
30069;DHT22;16894;49.456;10.644;2024-02-21T16:24:37;10.80;86.20
30069;DHT22;16894;49.456;10.644;2024-02-21T16:27:21;10.70;99.90
30069;DHT22;16894;49.456;10.644;2024-02-21T16:30:07;10.60;90.10
30069;DHT22;16894;49.456;10.644;2024-02-21T16:32:51;10.30;99.90
30069;DHT22;16894;49.456;10.644;2024-02-21T16:35:39;10.20;99.90
30069;DHT22;16894;49.456;10.644;2024-02-21T16:38:25;10.00;99.90
30069;DHT22;16894;49.456;10.644;2024-02-21T16:41:10;9.80;99.90
30069;DHT22;16894;49.456;10.644;2024-02-21T16:43:55;9.60;93.90
30069;DHT22;16894;49.456;10.644;2024-02-21T16:46:39;9.50;99.90
30069;DHT22;16894;49.456;10.644;2024-02-21T16:49:23;9.30;90.70
30069;DHT22;16894;49.456;10.644;2024-02-21T16:52:09;9.40;97.10
30069;DHT22;16894;49.456;10.644;2024-02-21T16:54:53;9.40;53.70
30069;DHT22;16894;49.456;10.644;2024-02-21T16:57:40;9.40;99.90
30069;DHT22;16894;49.456;10.644;2024-02-21T17:00:25;9.30;99.90
30069;DHT22;16894;49.456;10.644;2024-02-21T17:03:10;9.20;99.90
30069;DHT22;16894;49.456;10.644;2024-02-21T17:05:54;9.10;99.90
30069;DHT22;16894;49.456;10.644;2024-02-21T17:08:40;9.00;99.90
30069;DHT22;16894;49.456;10.644;2024-02-21T17:11:24;8.90;99.90
30069;DHT22;16894;49.456;10.644;2024-02-21T17:14:09;8.80;99.90
30069;DHT22;16894;49.456;10.644;2024-02-21T17:16:53;8.80;99.90
30069;DHT22;16894;49.456;10.644;2024-02-21T17:19:38;8.70;99.90
30069;DHT22;16894;49.456;10.644;2024-02-21T17:22:23;8.60;99.90